sensor_id;sensor_type;location;lat;lon;timestamp;P1;durP1;ratioP1;P2;durP2;ratioP2
8361;SDS011;4218;48.326;14.304;2024-02-16T00:00:22;17.90;;;16.90;;
8361;SDS011;4218;48.326;14.304;2024-02-16T00:02:49;19.90;;;18.97;;
8361;SDS011;4218;48.326;14.304;2024-02-16T00:05:14;27.77;;;26.27;;
8361;SDS011;4218;48.326;14.304;2024-02-16T00:07:39;51.20;;;48.77;;
8361;SDS011;4218;48.326;14.304;2024-02-16T00:10:06;18.70;;;17.77;;
8361;SDS011;4218;48.326;14.304;2024-02-16T00:12:32;22.43;;;21.20;;
8361;SDS011;4218;48.326;14.304;2024-02-16T00:14:59;22.60;;;21.53;;
8361;SDS011;4218;48.326;14.304;2024-02-16T00:17:25;24.33;;;23.20;;
8361;SDS011;4218;48.326;14.304;2024-02-16T00:19:57;22.33;;;21.23;;
8361;SDS011;4218;48.326;14.304;2024-02-16T00:22:22;33.57;;;31.93;;
8361;SDS011;4218;48.326;14.304;2024-02-16T00:24:48;18.73;;;17.87;;
8361;SDS011;4218;48.326;14.304;2024-02-16T00:27:14;17.27;;;16.23;;
8361;SDS011;4218;48.326;14.304;2024-02-16T00:29:40;20.23;;;18.93;;
8361;SDS011;4218;48.326;14.304;2024-02-16T00:32:06;16.53;;;15.70;;
8361;SDS011;4218;48.326;14.304;2024-02-16T00:34:32;26.93;;;25.63;;
8361;SDS011;4218;48.326;14.304;2024-02-16T00:36:58;24.67;;;23.33;;
8361;SDS011;4218;48.326;14.304;2024-02-16T00:39:23;22.03;;;20.93;;
8361;SDS011;4218;48.326;14.304;2024-02-16T00:41:49;24.20;;;23.00;;
8361;SDS011;4218;48.326;14.304;2024-02-16T00:44:15;18.80;;;17.87;;
8361;SDS011;4218;48.326;14.304;2024-02-16T00:46:41;18.07;;;17.10;;
8361;SDS011;4218;48.326;14.304;2024-02-16T00:49:06;21.17;;;20.20;;
8361;SDS011;4218;48.326;14.304;2024-02-16T00:51:32;20.53;;;19.53;;
8361;SDS011;4218;48.326;14.304;2024-02-16T00:53:57;20.87;;;19.97;;
8361;SDS011;4218;48.326;14.304;2024-02-16T00:56:23;18.47;;;17.43;;
8361;SDS011;4218;48.326;14.304;2024-02-16T00:58:48;19.13;;;17.93;;
8361;SDS011;4218;48.326;14.304;2024-02-16T01:01:14;21.03;;;19.83;;
8361;SDS011;4218;48.326;14.304;2024-02-16T01:03:39;17.63;;;16.63;;
8361;SDS011;4218;48.326;14.304;2024-02-16T01:06:07;21.27;;;20.20;;
8361;SDS011;4218;48.326;14.304;2024-02-16T01:08:35;20.00;;;18.90;;
8361;SDS011;4218;48.326;14.304;2024-02-16T01:11:00;21.80;;;20.80;;
8361;SDS011;4218;48.326;14.304;2024-02-16T01:13:25;30.63;;;29.07;;
8361;SDS011;4218;48.326;14.304;2024-02-16T01:15:51;32.20;;;30.37;;
8361;SDS011;4218;48.326;14.304;2024-02-16T01:18:17;21.80;;;20.47;;
8361;SDS011;4218;48.326;14.304;2024-02-16T01:20:42;29.07;;;27.33;;
8361;SDS011;4218;48.326;14.304;2024-02-16T01:23:08;23.47;;;21.97;;
8361;SDS011;4218;48.326;14.304;2024-02-16T01:25:33;25.40;;;24.00;;
8361;SDS011;4218;48.326;14.304;2024-02-16T01:27:58;28.57;;;26.40;;
8361;SDS011;4218;48.326;14.304;2024-02-16T01:30:24;55.35;;;51.53;;
8361;SDS011;4218;48.326;14.304;2024-02-16T01:32:49;38.00;;;35.33;;
8361;SDS011;4218;48.326;14.304;2024-02-16T01:35:15;31.43;;;29.23;;
8361;SDS011;4218;48.326;14.304;2024-02-16T01:37:41;21.40;;;19.80;;
8361;SDS011;4218;48.326;14.304;2024-02-16T01:40:09;21.80;;;20.27;;
8361;SDS011;4218;48.326;14.304;2024-02-16T01:42:46;26.27;;;24.37;;
8361;SDS011;4218;48.326;14.304;2024-02-16T01:45:12;24.43;;;23.00;;
8361;SDS011;4218;48.326;14.304;2024-02-16T01:47:38;22.10;;;20.60;;
8361;SDS011;4218;48.326;14.304;2024-02-16T01:50:05;33.10;;;30.80;;
8361;SDS011;4218;48.326;14.304;2024-02-16T01:52:31;36.30;;;33.83;;
8361;SDS011;4218;48.326;14.304;2024-02-16T01:54:59;30.93;;;29.20;;
8361;SDS011;4218;48.326;14.304;2024-02-16T01:57:26;19.43;;;18.40;;
8361;SDS011;4218;48.326;14.304;2024-02-16T01:59:51;20.80;;;19.83;;
8361;SDS011;4218;48.326;14.304;2024-02-16T02:02:16;23.03;;;21.90;;
8361;SDS011;4218;48.326;14.304;2024-02-16T02:04:42;24.67;;;23.27;;
8361;SDS011;4218;48.326;14.304;2024-02-16T02:07:11;29.47;;;28.07;;
8361;SDS011;4218;48.326;14.304;2024-02-16T02:09:40;27.27;;;26.07;;
8361;SDS011;4218;48.326;14.304;2024-02-16T02:12:06;18.93;;;18.10;;
8361;SDS011;4218;48.326;14.304;2024-02-16T02:14:33;18.83;;;18.03;;
8361;SDS011;4218;48.326;14.304;2024-02-16T02:16:59;20.17;;;19.23;;
8361;SDS011;4218;48.326;14.304;2024-02-16T02:19:24;19.80;;;18.87;;
8361;SDS011;4218;48.326;14.304;2024-02-16T02:21:49;20.37;;;19.40;;
8361;SDS011;4218;48.326;14.304;2024-02-16T02:24:15;19.40;;;18.43;;
8361;SDS011;4218;48.326;14.304;2024-02-16T02:26:41;21.77;;;20.77;;
8361;SDS011;4218;48.326;14.304;2024-02-16T02:29:06;24.23;;;23.03;;
8361;SDS011;4218;48.326;14.304;2024-02-16T02:31:32;25.87;;;24.63;;
8361;SDS011;4218;48.326;14.304;2024-02-16T02:33:57;30.27;;;28.87;;
8361;SDS011;4218;48.326;14.304;2024-02-16T02:36:22;26.33;;;25.13;;
8361;SDS011;4218;48.326;14.304;2024-02-16T02:38:48;13.40;;;12.77;;
8361;SDS011;4218;48.326;14.304;2024-02-16T02:41:13;17.07;;;16.13;;
8361;SDS011;4218;48.326;14.304;2024-02-16T02:43:41;16.50;;;15.70;;
8361;SDS011;4218;48.326;14.304;2024-02-16T02:46:07;20.87;;;19.77;;
8361;SDS011;4218;48.326;14.304;2024-02-16T02:48:32;22.30;;;21.20;;
8361;SDS011;4218;48.326;14.304;2024-02-16T02:50:57;18.17;;;17.17;;
8361;SDS011;4218;48.326;14.304;2024-02-16T02:53:24;17.03;;;16.03;;
8361;SDS011;4218;48.326;14.304;2024-02-16T02:55:53;12.70;;;12.00;;
8361;SDS011;4218;48.326;14.304;2024-02-16T02:58:18;14.20;;;13.50;;
8361;SDS011;4218;48.326;14.304;2024-02-16T03:00:43;14.73;;;13.93;;
8361;SDS011;4218;48.326;14.304;2024-02-16T03:03:09;15.23;;;14.43;;
8361;SDS011;4218;48.326;14.304;2024-02-16T03:05:35;21.00;;;19.87;;
8361;SDS011;4218;48.326;14.304;2024-02-16T03:08:00;17.87;;;16.87;;
8361;SDS011;4218;48.326;14.304;2024-02-16T03:10:26;14.03;;;13.13;;
8361;SDS011;4218;48.326;14.304;2024-02-16T03:12:56;16.67;;;15.70;;
8361;SDS011;4218;48.326;14.304;2024-02-16T03:15:21;16.13;;;15.33;;
8361;SDS011;4218;48.326;14.304;2024-02-16T03:17:46;14.97;;;14.13;;
8361;SDS011;4218;48.326;14.304;2024-02-16T03:20:12;17.13;;;16.13;;
8361;SDS011;4218;48.326;14.304;2024-02-16T03:22:37;26.27;;;24.97;;
8361;SDS011;4218;48.326;14.304;2024-02-16T03:25:03;31.00;;;29.43;;
8361;SDS011;4218;48.326;14.304;2024-02-16T03:27:30;22.60;;;21.50;;
8361;SDS011;4218;48.326;14.304;2024-02-16T03:29:55;23.43;;;22.23;;
8361;SDS011;4218;48.326;14.304;2024-02-16T03:32:20;14.97;;;14.17;;
8361;SDS011;4218;48.326;14.304;2024-02-16T03:34:46;15.67;;;14.77;;
8361;SDS011;4218;48.326;14.304;2024-02-16T03:37:11;20.20;;;19.03;;
8361;SDS011;4218;48.326;14.304;2024-02-16T03:39:37;20.27;;;19.07;;
8361;SDS011;4218;48.326;14.304;2024-02-16T03:42:02;24.20;;;22.43;;
8361;SDS011;4218;48.326;14.304;2024-02-16T03:44:28;20.93;;;19.67;;
8361;SDS011;4218;48.326;14.304;2024-02-16T03:46:53;18.67;;;17.37;;
8361;SDS011;4218;48.326;14.304;2024-02-16T03:49:19;18.57;;;17.37;;
8361;SDS011;4218;48.326;14.304;2024-02-16T03:51:44;19.03;;;17.63;;
8361;SDS011;4218;48.326;14.304;2024-02-16T03:54:10;16.73;;;15.33;;
8361;SDS011;4218;48.326;14.304;2024-02-16T03:56:35;20.10;;;18.80;;
8361;SDS011;4218;48.326;14.304;2024-02-16T03:59:01;18.30;;;17.00;;
8361;SDS011;4218;48.326;14.304;2024-02-16T04:01:26;17.43;;;16.20;;
8361;SDS011;4218;48.326;14.304;2024-02-16T04:03:51;20.77;;;19.40;;
8361;SDS011;4218;48.326;14.304;2024-02-16T04:06:18;19.97;;;18.57;;
8361;SDS011;4218;48.326;14.304;2024-02-16T04:08:44;19.00;;;17.60;;
8361;SDS011;4218;48.326;14.304;2024-02-16T04:11:11;20.07;;;18.63;;
8361;SDS011;4218;48.326;14.304;2024-02-16T04:13:38;16.50;;;15.50;;
8361;SDS011;4218;48.326;14.304;2024-02-16T04:16:03;16.50;;;15.50;;
8361;SDS011;4218;48.326;14.304;2024-02-16T04:18:29;17.37;;;16.17;;
8361;SDS011;4218;48.326;14.304;2024-02-16T04:20:54;17.20;;;16.07;;
8361;SDS011;4218;48.326;14.304;2024-02-16T04:23:19;18.77;;;17.57;;
8361;SDS011;4218;48.326;14.304;2024-02-16T04:25:45;23.30;;;21.83;;
8361;SDS011;4218;48.326;14.304;2024-02-16T04:28:10;26.57;;;24.53;;
8361;SDS011;4218;48.326;14.304;2024-02-16T04:30:35;38.03;;;35.90;;
8361;SDS011;4218;48.326;14.304;2024-02-16T04:33:01;30.73;;;29.03;;
8361;SDS011;4218;48.326;14.304;2024-02-16T04:35:26;18.77;;;17.67;;
8361;SDS011;4218;48.326;14.304;2024-02-16T04:37:52;20.33;;;19.13;;
8361;SDS011;4218;48.326;14.304;2024-02-16T04:40:17;19.30;;;17.97;;
8361;SDS011;4218;48.326;14.304;2024-02-16T04:42:42;19.57;;;18.33;;
8361;SDS011;4218;48.326;14.304;2024-02-16T04:45:10;20.83;;;19.43;;
8361;SDS011;4218;48.326;14.304;2024-02-16T04:47:37;21.43;;;20.03;;
8361;SDS011;4218;48.326;14.304;2024-02-16T04:50:03;19.90;;;18.67;;
8361;SDS011;4218;48.326;14.304;2024-02-16T04:52:29;20.53;;;19.30;;
8361;SDS011;4218;48.326;14.304;2024-02-16T04:54:55;17.03;;;15.93;;
8361;SDS011;4218;48.326;14.304;2024-02-16T04:57:20;18.57;;;17.37;;
8361;SDS011;4218;48.326;14.304;2024-02-16T04:59:45;19.47;;;18.27;;
8361;SDS011;4218;48.326;14.304;2024-02-16T05:02:11;20.30;;;19.17;;
8361;SDS011;4218;48.326;14.304;2024-02-16T05:04:36;20.10;;;18.63;;
8361;SDS011;4218;48.326;14.304;2024-02-16T05:07:01;17.10;;;16.00;;
8361;SDS011;4218;48.326;14.304;2024-02-16T05:09:27;22.53;;;21.20;;
8361;SDS011;4218;48.326;14.304;2024-02-16T05:11:52;21.60;;;20.37;;
8361;SDS011;4218;48.326;14.304;2024-02-16T05:14:18;21.23;;;19.93;;
8361;SDS011;4218;48.326;14.304;2024-02-16T05:16:43;25.03;;;23.33;;
8361;SDS011;4218;48.326;14.304;2024-02-16T05:19:09;31.63;;;29.53;;
8361;SDS011;4218;48.326;14.304;2024-02-16T05:21:35;36.30;;;34.23;;
8361;SDS011;4218;48.326;14.304;2024-02-16T05:24:00;19.03;;;17.67;;
8361;SDS011;4218;48.326;14.304;2024-02-16T05:26:27;17.90;;;16.80;;
8361;SDS011;4218;48.326;14.304;2024-02-16T05:28:52;21.73;;;20.50;;
8361;SDS011;4218;48.326;14.304;2024-02-16T05:31:17;21.50;;;20.30;;
8361;SDS011;4218;48.326;14.304;2024-02-16T05:33:44;19.97;;;18.83;;
8361;SDS011;4218;48.326;14.304;2024-02-16T05:36:10;18.17;;;17.07;;
8361;SDS011;4218;48.326;14.304;2024-02-16T05:38:37;17.97;;;16.67;;
8361;SDS011;4218;48.326;14.304;2024-02-16T05:41:09;19.83;;;18.53;;
8361;SDS011;4218;48.326;14.304;2024-02-16T05:43:36;17.67;;;16.37;;
8361;SDS011;4218;48.326;14.304;2024-02-16T05:46:03;24.47;;;22.97;;
8361;SDS011;4218;48.326;14.304;2024-02-16T05:48:31;19.73;;;18.47;;
8361;SDS011;4218;48.326;14.304;2024-02-16T05:50:57;22.47;;;20.93;;
8361;SDS011;4218;48.326;14.304;2024-02-16T05:53:25;24.27;;;22.83;;
8361;SDS011;4218;48.326;14.304;2024-02-16T05:55:52;19.50;;;18.17;;
8361;SDS011;4218;48.326;14.304;2024-02-16T05:58:18;28.57;;;26.77;;
8361;SDS011;4218;48.326;14.304;2024-02-16T06:00:43;28.00;;;26.30;;
8361;SDS011;4218;48.326;14.304;2024-02-16T06:03:08;26.90;;;25.30;;
8361;SDS011;4218;48.326;14.304;2024-02-16T06:05:36;29.17;;;27.27;;
8361;SDS011;4218;48.326;14.304;2024-02-16T06:08:02;24.33;;;22.80;;
8361;SDS011;4218;48.326;14.304;2024-02-16T06:10:28;22.93;;;21.50;;
8361;SDS011;4218;48.326;14.304;2024-02-16T06:12:53;21.60;;;20.30;;
8361;SDS011;4218;48.326;14.304;2024-02-16T06:15:25;22.87;;;21.30;;
8361;SDS011;4218;48.326;14.304;2024-02-16T06:17:53;19.67;;;18.37;;
8361;SDS011;4218;48.326;14.304;2024-02-16T06:20:19;21.97;;;20.47;;
8361;SDS011;4218;48.326;14.304;2024-02-16T06:22:50;20.80;;;19.30;;
8361;SDS011;4218;48.326;14.304;2024-02-16T06:25:21;20.67;;;19.47;;
8361;SDS011;4218;48.326;14.304;2024-02-16T06:28:03;17.20;;;16.10;;
8361;SDS011;4218;48.326;14.304;2024-02-16T06:30:41;18.50;;;17.33;;
8361;SDS011;4218;48.326;14.304;2024-02-16T06:33:37;17.27;;;15.93;;
8361;SDS011;4218;48.326;14.304;2024-02-16T06:36:13;18.83;;;17.70;;
8361;SDS011;4218;48.326;14.304;2024-02-16T06:38:43;23.17;;;21.57;;
8361;SDS011;4218;48.326;14.304;2024-02-16T06:41:08;44.77;;;42.40;;
8361;SDS011;4218;48.326;14.304;2024-02-16T06:43:37;38.00;;;36.00;;
8361;SDS011;4218;48.326;14.304;2024-02-16T06:46:12;30.60;;;28.90;;
8361;SDS011;4218;48.326;14.304;2024-02-16T06:48:45;32.00;;;30.20;;
8361;SDS011;4218;48.326;14.304;2024-02-16T06:51:12;39.87;;;37.10;;
8361;SDS011;4218;48.326;14.304;2024-02-16T06:53:42;33.87;;;31.87;;
8361;SDS011;4218;48.326;14.304;2024-02-16T06:56:35;34.77;;;32.67;;
8361;SDS011;4218;48.326;14.304;2024-02-16T06:59:06;51.63;;;48.80;;
8361;SDS011;4218;48.326;14.304;2024-02-16T07:01:39;40.17;;;37.93;;
8361;SDS011;4218;48.326;14.304;2024-02-16T07:04:30;27.47;;;25.83;;
8361;SDS011;4218;48.326;14.304;2024-02-16T07:06:58;29.97;;;28.27;;
8361;SDS011;4218;48.326;14.304;2024-02-16T07:09:47;24.47;;;22.77;;
8361;SDS011;4218;48.326;14.304;2024-02-16T07:12:23;52.93;;;50.07;;
8361;SDS011;4218;48.326;14.304;2024-02-16T07:14:52;24.43;;;22.73;;
8361;SDS011;4218;48.326;14.304;2024-02-16T07:17:33;24.60;;;22.80;;
8361;SDS011;4218;48.326;14.304;2024-02-16T07:19:59;26.77;;;24.60;;
8361;SDS011;4218;48.326;14.304;2024-02-16T07:25:52;26.50;;;24.30;;
8361;SDS011;4218;48.326;14.304;2024-02-16T07:28:40;23.30;;;21.37;;
8361;SDS011;4218;48.326;14.304;2024-02-16T07:31:08;34.53;;;31.63;;
8361;SDS011;4218;48.326;14.304;2024-02-16T07:33:42;26.13;;;24.13;;
8361;SDS011;4218;48.326;14.304;2024-02-16T07:36:11;35.23;;;32.83;;
8361;SDS011;4218;48.326;14.304;2024-02-16T07:38:39;28.07;;;25.77;;
8361;SDS011;4218;48.326;14.304;2024-02-16T07:41:12;27.40;;;25.37;;
8361;SDS011;4218;48.326;14.304;2024-02-16T07:43:41;28.43;;;26.13;;
8361;SDS011;4218;48.326;14.304;2024-02-16T07:46:10;38.23;;;35.67;;
8361;SDS011;4218;48.326;14.304;2024-02-16T07:48:40;37.10;;;34.43;;
8361;SDS011;4218;48.326;14.304;2024-02-16T07:51:23;31.33;;;29.07;;
8361;SDS011;4218;48.326;14.304;2024-02-16T07:53:50;31.10;;;28.80;;
8361;SDS011;4218;48.326;14.304;2024-02-16T07:56:20;35.57;;;33.10;;
8361;SDS011;4218;48.326;14.304;2024-02-16T07:58:46;29.50;;;27.30;;
8361;SDS011;4218;48.326;14.304;2024-02-16T08:01:12;31.27;;;28.97;;
8361;SDS011;4218;48.326;14.304;2024-02-16T08:03:40;31.37;;;29.20;;
8361;SDS011;4218;48.326;14.304;2024-02-16T08:06:05;34.13;;;31.73;;
8361;SDS011;4218;48.326;14.304;2024-02-16T08:08:31;35.10;;;32.50;;
8361;SDS011;4218;48.326;14.304;2024-02-16T08:10:56;29.10;;;26.80;;
8361;SDS011;4218;48.326;14.304;2024-02-16T08:13:22;26.23;;;24.13;;
8361;SDS011;4218;48.326;14.304;2024-02-16T08:15:48;51.30;;;48.23;;
8361;SDS011;4218;48.326;14.304;2024-02-16T08:18:16;32.40;;;29.60;;
8361;SDS011;4218;48.326;14.304;2024-02-16T08:20:42;76.60;;;71.90;;
8361;SDS011;4218;48.326;14.304;2024-02-16T08:23:08;172.87;;;163.70;;
8361;SDS011;4218;48.326;14.304;2024-02-16T08:25:33;79.03;;;74.13;;
8361;SDS011;4218;48.326;14.304;2024-02-16T08:28:00;33.93;;;30.83;;
8361;SDS011;4218;48.326;14.304;2024-02-16T08:30:25;31.43;;;28.87;;
8361;SDS011;4218;48.326;14.304;2024-02-16T08:32:51;40.03;;;36.67;;
8361;SDS011;4218;48.326;14.304;2024-02-16T08:35:21;38.97;;;35.50;;
8361;SDS011;4218;48.326;14.304;2024-02-16T08:37:46;47.13;;;43.17;;
8361;SDS011;4218;48.326;14.304;2024-02-16T08:40:13;60.67;;;55.60;;
8361;SDS011;4218;48.326;14.304;2024-02-16T08:42:55;72.00;;;66.53;;
8361;SDS011;4218;48.326;14.304;2024-02-16T08:45:20;158.00;;;148.37;;
8361;SDS011;4218;48.326;14.304;2024-02-16T08:47:46;85.57;;;79.27;;
8361;SDS011;4218;48.326;14.304;2024-02-16T08:50:13;113.90;;;105.60;;
8361;SDS011;4218;48.326;14.304;2024-02-16T08:52:40;404.60;;;378.93;;
8361;SDS011;4218;48.326;14.304;2024-02-16T08:55:06;276.43;;;259.20;;
8361;SDS011;4218;48.326;14.304;2024-02-16T08:57:36;105.07;;;95.07;;
8361;SDS011;4218;48.326;14.304;2024-02-16T09:00:12;40.23;;;34.63;;
8361;SDS011;4218;48.326;14.304;2024-02-16T09:02:38;86.97;;;79.93;;
8361;SDS011;4218;48.326;14.304;2024-02-16T09:05:04;142.40;;;133.10;;
8361;SDS011;4218;48.326;14.304;2024-02-16T09:07:35;170.07;;;158.87;;
8361;SDS011;4218;48.326;14.304;2024-02-16T09:10:00;40.73;;;34.83;;
8361;SDS011;4218;48.326;14.304;2024-02-16T09:12:26;43.47;;;38.83;;
8361;SDS011;4218;48.326;14.304;2024-02-16T09:14:51;42.90;;;38.70;;
8361;SDS011;4218;48.326;14.304;2024-02-16T09:17:17;36.43;;;30.80;;
8361;SDS011;4218;48.326;14.304;2024-02-16T09:19:50;39.53;;;31.60;;
8361;SDS011;4218;48.326;14.304;2024-02-16T09:22:25;38.10;;;33.67;;
8361;SDS011;4218;48.326;14.304;2024-02-16T09:25:14;43.90;;;33.53;;
8361;SDS011;4218;48.326;14.304;2024-02-16T09:28:14;40.70;;;35.37;;
8361;SDS011;4218;48.326;14.304;2024-02-16T09:30:46;43.00;;;38.37;;
8361;SDS011;4218;48.326;14.304;2024-02-16T09:33:22;46.43;;;41.53;;
8361;SDS011;4218;48.326;14.304;2024-02-16T09:35:50;49.27;;;37.70;;
8361;SDS011;4218;48.326;14.304;2024-02-16T09:38:16;54.87;;;39.27;;
8361;SDS011;4218;48.326;14.304;2024-02-16T09:40:42;55.30;;;39.57;;
8361;SDS011;4218;48.326;14.304;2024-02-16T09:43:08;67.63;;;40.83;;
8361;SDS011;4218;48.326;14.304;2024-02-16T09:45:35;64.50;;;41.20;;
8361;SDS011;4218;48.326;14.304;2024-02-16T09:48:06;70.97;;;44.83;;
8361;SDS011;4218;48.326;14.304;2024-02-16T09:50:53;80.00;;;54.40;;
8361;SDS011;4218;48.326;14.304;2024-02-16T09:53:25;74.17;;;45.13;;
8361;SDS011;4218;48.326;14.304;2024-02-16T09:56:22;78.30;;;52.30;;
8361;SDS011;4218;48.326;14.304;2024-02-16T09:58:51;72.87;;;43.87;;
8361;SDS011;4218;48.326;14.304;2024-02-16T10:01:21;63.53;;;44.83;;
8361;SDS011;4218;48.326;14.304;2024-02-16T10:03:52;77.47;;;55.60;;
8361;SDS011;4218;48.326;14.304;2024-02-16T10:06:19;71.70;;;41.70;;
8361;SDS011;4218;48.326;14.304;2024-02-16T10:08:50;70.37;;;44.90;;
8361;SDS011;4218;48.326;14.304;2024-02-16T10:11:31;81.07;;;53.03;;
8361;SDS011;4218;48.326;14.304;2024-02-16T10:13:57;181.27;;;167.03;;
8361;SDS011;4218;48.326;14.304;2024-02-16T10:16:26;175.20;;;161.67;;
8361;SDS011;4218;48.326;14.304;2024-02-16T10:19:05;70.40;;;43.80;;
8361;SDS011;4218;48.326;14.304;2024-02-16T10:21:31;74.07;;;56.93;;
8361;SDS011;4218;48.326;14.304;2024-02-16T10:23:59;107.40;;;96.27;;
8361;SDS011;4218;48.326;14.304;2024-02-16T10:26:27;81.63;;;60.43;;
8361;SDS011;4218;48.326;14.304;2024-02-16T10:28:55;87.37;;;78.37;;
8361;SDS011;4218;48.326;14.304;2024-02-16T10:31:23;107.43;;;97.93;;
8361;SDS011;4218;48.326;14.304;2024-02-16T10:33:57;184.20;;;171.20;;
8361;SDS011;4218;48.326;14.304;2024-02-16T10:36:24;60.13;;;42.10;;
8361;SDS011;4218;48.326;14.304;2024-02-16T10:38:51;65.07;;;41.33;;
8361;SDS011;4218;48.326;14.304;2024-02-16T10:41:18;65.50;;;43.10;;
8361;SDS011;4218;48.326;14.304;2024-02-16T10:43:46;67.33;;;40.37;;
8361;SDS011;4218;48.326;14.304;2024-02-16T10:46:13;58.33;;;42.23;;
8361;SDS011;4218;48.326;14.304;2024-02-16T10:48:42;59.90;;;44.50;;
8361;SDS011;4218;48.326;14.304;2024-02-16T10:51:07;66.30;;;48.07;;
8361;SDS011;4218;48.326;14.304;2024-02-16T10:53:36;63.07;;;43.00;;
8361;SDS011;4218;48.326;14.304;2024-02-16T10:56:07;60.67;;;41.30;;
8361;SDS011;4218;48.326;14.304;2024-02-16T10:58:34;66.50;;;59.73;;
8361;SDS011;4218;48.326;14.304;2024-02-16T11:01:07;58.67;;;41.97;;
8361;SDS011;4218;48.326;14.304;2024-02-16T11:03:40;57.20;;;41.37;;
8361;SDS011;4218;48.326;14.304;2024-02-16T11:06:15;60.40;;;52.67;;
8361;SDS011;4218;48.326;14.304;2024-02-16T11:08:41;62.83;;;43.70;;
8361;SDS011;4218;48.326;14.304;2024-02-16T11:11:07;62.40;;;42.33;;
8361;SDS011;4218;48.326;14.304;2024-02-16T11:13:35;52.07;;;41.17;;
8361;SDS011;4218;48.326;14.304;2024-02-16T11:16:08;121.67;;;111.90;;
8361;SDS011;4218;48.326;14.304;2024-02-16T11:18:38;60.03;;;53.57;;
8361;SDS011;4218;48.326;14.304;2024-02-16T11:21:14;50.60;;;34.53;;
8361;SDS011;4218;48.326;14.304;2024-02-16T11:23:40;45.07;;;33.93;;
8361;SDS011;4218;48.326;14.304;2024-02-16T11:26:08;49.53;;;33.90;;
8361;SDS011;4218;48.326;14.304;2024-02-16T11:28:38;75.53;;;68.47;;
8361;SDS011;4218;48.326;14.304;2024-02-16T11:31:05;65.60;;;58.93;;
8361;SDS011;4218;48.326;14.304;2024-02-16T11:33:32;48.27;;;37.57;;
8361;SDS011;4218;48.326;14.304;2024-02-16T11:35:59;180.00;;;168.40;;
8361;SDS011;4218;48.326;14.304;2024-02-16T11:38:26;52.40;;;37.40;;
8361;SDS011;4218;48.326;14.304;2024-02-16T11:41:02;50.93;;;38.50;;
8361;SDS011;4218;48.326;14.304;2024-02-16T11:43:33;52.57;;;45.67;;
8361;SDS011;4218;48.326;14.304;2024-02-16T11:46:12;60.67;;;54.67;;
8361;SDS011;4218;48.326;14.304;2024-02-16T11:48:50;45.57;;;39.00;;
8361;SDS011;4218;48.326;14.304;2024-02-16T11:51:19;47.10;;;39.03;;
8361;SDS011;4218;48.326;14.304;2024-02-16T11:53:56;46.13;;;35.00;;
8361;SDS011;4218;48.326;14.304;2024-02-16T11:56:32;50.03;;;37.07;;
8361;SDS011;4218;48.326;14.304;2024-02-16T11:59:16;61.80;;;40.27;;
8361;SDS011;4218;48.326;14.304;2024-02-16T12:01:54;53.53;;;39.03;;
8361;SDS011;4218;48.326;14.304;2024-02-16T12:04:24;52.13;;;38.83;;
8361;SDS011;4218;48.326;14.304;2024-02-16T12:07:09;52.13;;;43.17;;
8361;SDS011;4218;48.326;14.304;2024-02-16T12:10:00;49.07;;;38.90;;
8361;SDS011;4218;48.326;14.304;2024-02-16T12:12:26;48.53;;;36.97;;
8361;SDS011;4218;48.326;14.304;2024-02-16T12:14:57;47.20;;;34.93;;
8361;SDS011;4218;48.326;14.304;2024-02-16T12:17:26;40.10;;;33.37;;
8361;SDS011;4218;48.326;14.304;2024-02-16T12:20:12;40.27;;;31.90;;
8361;SDS011;4218;48.326;14.304;2024-02-16T12:22:38;40.43;;;33.07;;
8361;SDS011;4218;48.326;14.304;2024-02-16T12:25:11;44.33;;;34.00;;
8361;SDS011;4218;48.326;14.304;2024-02-16T12:27:37;39.70;;;32.43;;
8361;SDS011;4218;48.326;14.304;2024-02-16T12:30:05;37.87;;;30.43;;
8361;SDS011;4218;48.326;14.304;2024-02-16T12:32:38;39.13;;;32.47;;
8361;SDS011;4218;48.326;14.304;2024-02-16T12:35:11;43.73;;;33.97;;
8361;SDS011;4218;48.326;14.304;2024-02-16T12:37:37;42.07;;;32.50;;
8361;SDS011;4218;48.326;14.304;2024-02-16T12:40:02;38.50;;;32.77;;
8361;SDS011;4218;48.326;14.304;2024-02-16T12:42:35;50.63;;;42.10;;
8361;SDS011;4218;48.326;14.304;2024-02-16T12:45:06;38.83;;;29.33;;
8361;SDS011;4218;48.326;14.304;2024-02-16T12:47:40;33.93;;;30.33;;
8361;SDS011;4218;48.326;14.304;2024-02-16T12:50:22;45.40;;;41.20;;
8361;SDS011;4218;48.326;14.304;2024-02-16T12:52:59;38.33;;;31.60;;
8361;SDS011;4218;48.326;14.304;2024-02-16T12:59:24;33.23;;;29.93;;
8361;SDS011;4218;48.326;14.304;2024-02-16T14:18:04;29.40;;;26.60;;
8361;SDS011;4218;48.326;14.304;2024-02-16T14:20:55;30.00;;;27.03;;
8361;SDS011;4218;48.326;14.304;2024-02-16T14:23:21;31.67;;;28.63;;
8361;SDS011;4218;48.326;14.304;2024-02-16T14:28:44;39.50;;;36.30;;
8361;SDS011;4218;48.326;14.304;2024-02-16T14:31:12;30.50;;;27.50;;
8361;SDS011;4218;48.326;14.304;2024-02-16T14:37:22;35.63;;;32.40;;
8361;SDS011;4218;48.326;14.304;2024-02-16T14:39:47;28.40;;;25.57;;
8361;SDS011;4218;48.326;14.304;2024-02-16T14:42:14;28.30;;;25.90;;
8361;SDS011;4218;48.326;14.304;2024-02-16T14:44:39;29.80;;;26.97;;
8361;SDS011;4218;48.326;14.304;2024-02-16T14:47:11;28.20;;;25.47;;
